createdAt,value
2023-03-30T00:02:10.512Z,11.52
2023-03-30T00:04:43.111Z,10.88
2023-03-30T00:07:12.663Z,10.68
2023-03-30T00:09:43.484Z,10.35
2023-03-30T00:12:15.614Z,10.52
2023-03-30T00:14:44.853Z,10.77
2023-03-30T00:17:15.284Z,9.95
2023-03-30T00:19:44.353Z,10.93
2023-03-30T00:22:13.441Z,10.35
2023-03-30T00:24:42.244Z,10.50
2023-03-30T00:27:11.275Z,10.73
2023-03-30T00:29:40.599Z,9.63
2023-03-30T00:32:09.785Z,10.65
2023-03-30T00:34:40.156Z,9.95
2023-03-30T00:37:09.377Z,10.25
2023-03-30T00:45:14.428Z,10.20
2023-03-30T00:47:49.936Z,10.35
2023-03-30T00:50:25.013Z,9.80
2023-03-30T00:52:58.977Z,9.55
2023-03-30T00:55:33.264Z,9.90
2023-03-30T00:58:02.863Z,10.57
2023-03-30T01:00:33.172Z,9.77
2023-03-30T01:03:11.705Z,10.23
2023-03-30T01:05:44.885Z,10.05
2023-03-30T01:08:16.605Z,10.73
2023-03-30T01:10:46.516Z,10.73
2023-03-30T01:13:16.977Z,10.43
2023-03-30T01:16:10.460Z,10.27
2023-03-30T01:18:54.817Z,10.35
2023-03-30T01:22:05.627Z,9.90
2023-03-30T01:25:20.582Z,10.70
2023-03-30T01:28:17.968Z,10.80
2023-03-30T01:31:25.704Z,10.98
2023-03-30T01:34:59.154Z,9.25
2023-03-30T01:38:21.443Z,9.40
2023-03-30T01:41:07.924Z,10.40
2023-03-30T01:43:45.009Z,9.93
2023-03-30T01:46:25.358Z,9.50
2023-03-30T01:49:10.782Z,10.10
2023-03-30T01:51:49.579Z,9.77
2023-03-30T01:54:26.650Z,10.23
2023-03-30T01:57:06.462Z,9.32
2023-03-30T01:59:42.628Z,9.93
2023-03-30T02:02:15.008Z,9.32
2023-03-30T02:04:46.390Z,9.85
2023-03-30T02:07:22.539Z,10.07
2023-03-30T02:09:55.110Z,9.77
2023-03-30T02:12:30.504Z,9.55
2023-03-30T02:15:04.755Z,9.32
2023-03-30T02:17:35.794Z,10.00
2023-03-30T02:20:08.994Z,9.82
2023-03-30T02:22:39.542Z,9.88
2023-03-30T02:25:09.477Z,22.83
2023-03-30T02:27:42.322Z,129.60
2023-03-30T02:30:12.393Z,131.30
2023-03-30T02:32:48.282Z,150.07
2023-03-30T02:35:51.879Z,17.70
2023-03-30T02:38:52.806Z,57.08
2023-03-30T02:41:48.844Z,96.13
2023-03-30T02:44:33.721Z,35.17
2023-03-30T02:47:13.497Z,52.70
2023-03-30T02:49:58.725Z,36.53
2023-03-30T02:52:49.990Z,42.10
2023-03-30T02:55:24.559Z,24.38
2023-03-30T02:58:29.738Z,16.30
2023-03-30T03:01:24.369Z,18.58
2023-03-30T03:04:03.508Z,21.83
2023-03-30T03:06:42.497Z,17.38
2023-03-30T03:09:11.460Z,21.65
2023-03-30T03:11:40.786Z,16.15
2023-03-30T03:14:09.607Z,13.40
2023-03-30T03:16:40.088Z,14.43
2023-03-30T03:19:16.069Z,12.35
2023-03-30T03:21:46.669Z,13.63
2023-03-30T03:24:17.482Z,13.13
2023-03-30T03:27:05.508Z,14.77
2023-03-30T03:29:44.898Z,13.15
2023-03-30T03:32:15.528Z,15.77
2023-03-30T03:34:48.480Z,15.52
2023-03-30T03:41:50.964Z,11.38
2023-03-30T03:44:19.940Z,11.60
2023-03-30T03:46:49.142Z,11.68
2023-03-30T03:49:19.379Z,11.15
2023-03-30T03:51:48.375Z,10.70
2023-03-30T03:54:17.233Z,11.38
2023-03-30T03:56:49.421Z,12.18
2023-03-30T03:59:18.196Z,11.30
2023-03-30T04:01:50.143Z,10.85
2023-03-30T04:04:20.401Z,11.45
2023-03-30T04:06:49.730Z,12.48
2023-03-30T04:09:19.320Z,11.82
2023-03-30T04:12:07.422Z,13.13
2023-03-30T04:15:06.129Z,15.20
2023-03-30T04:17:57.880Z,12.98
2023-03-30T04:20:43.945Z,12.98
2023-03-30T04:23:33.805Z,13.35
2023-03-30T04:26:35.542Z,12.05
2023-03-30T04:29:06.609Z,11.35
2023-03-30T04:32:20.637Z,11.90
2023-03-30T04:35:05.693Z,11.05
2023-03-30T04:38:06.226Z,12.02
2023-03-30T04:40:46.918Z,11.05
2023-03-30T04:43:27.258Z,12.98
2023-03-30T04:46:28.706Z,11.88
2023-03-30T04:49:35.794Z,12.25
2023-03-30T04:52:27.937Z,11.88
2023-03-30T04:55:16.470Z,12.93
2023-03-30T04:58:03.931Z,23.70
2023-03-30T05:00:44.574Z,20.67
2023-03-30T05:03:31.571Z,19.95
2023-03-30T05:06:09.824Z,16.63
2023-03-30T05:08:58.459Z,11.77
2023-03-30T05:11:51.518Z,12.15
2023-03-30T05:14:43.881Z,13.02
2023-03-30T05:17:34.793Z,11.63
2023-03-30T05:20:25.699Z,12.93
2023-03-30T05:23:06.862Z,11.88
2023-03-30T05:25:55.597Z,12.00
2023-03-30T05:28:44.388Z,12.57
2023-03-30T05:31:36.849Z,13.30
2023-03-30T05:34:36.506Z,12.80
2023-03-30T05:37:16.399Z,12.02
2023-03-30T05:40:09.541Z,12.95
2023-03-30T05:42:46.249Z,13.30
2023-03-30T05:45:33.498Z,12.90
2023-03-30T05:48:26.060Z,18.92
2023-03-30T05:51:20.913Z,17.20
2023-03-30T05:54:18.073Z,18.17
2023-03-30T05:57:04.214Z,16.70
2023-03-30T05:59:42.082Z,11.95
2023-03-30T06:02:29.934Z,13.40
2023-03-30T06:05:06.156Z,14.95
2023-03-30T06:07:35.129Z,13.85
2023-03-30T06:10:04.682Z,12.43
2023-03-30T06:12:33.636Z,13.23
2023-03-30T06:15:03.522Z,12.93
2023-03-30T06:17:43.173Z,12.40
2023-03-30T06:20:13.734Z,13.52
2023-03-30T06:22:46.449Z,12.93
2023-03-30T06:25:21.186Z,13.23
2023-03-30T06:27:50.134Z,12.90
2023-03-30T06:30:19.978Z,12.73
2023-03-30T06:32:54.642Z,12.57
2023-03-30T06:35:27.534Z,13.00
2023-03-30T06:42:29.604Z,13.35
2023-03-30T06:45:13.189Z,11.80
2023-03-30T06:47:42.510Z,13.48
2023-03-30T06:50:14.566Z,14.98
2023-03-30T06:52:46.297Z,14.20
2023-03-30T06:55:17.021Z,14.70
2023-03-30T06:57:45.777Z,13.45
2023-03-30T07:00:16.395Z,13.27
2023-03-30T07:03:04.203Z,12.63
2023-03-30T07:05:42.673Z,12.80
2023-03-30T07:08:38.089Z,12.70
2023-03-30T07:11:08.489Z,13.00
2023-03-30T07:13:40.808Z,11.75
2023-03-30T07:16:11.292Z,12.40
2023-03-30T07:18:40.247Z,12.20
2023-03-30T07:21:10.854Z,12.88
2023-03-30T07:23:43.404Z,13.38
2023-03-30T07:26:18.118Z,12.85
2023-03-30T07:29:00.784Z,13.38
2023-03-30T07:31:32.150Z,12.25
2023-03-30T07:34:04.339Z,12.48
2023-03-30T07:36:40.220Z,12.00
2023-03-30T07:39:09.216Z,11.75
2023-03-30T07:41:41.344Z,11.90
2023-03-30T07:44:10.363Z,11.93
2023-03-30T07:46:39.564Z,12.32
2023-03-30T07:49:10.744Z,12.10
2023-03-30T07:51:43.138Z,12.20
2023-03-30T07:54:21.931Z,11.68
2023-03-30T07:57:18.344Z,13.45
2023-03-30T07:59:47.324Z,12.07
2023-03-30T08:02:35.608Z,12.43
2023-03-30T08:05:05.315Z,12.60
2023-03-30T08:08:01.211Z,12.27
2023-03-30T08:10:34.848Z,13.10
2023-03-30T08:17:37.881Z,13.20
2023-03-30T08:20:10.906Z,12.05
2023-03-30T08:22:40.066Z,12.13
2023-03-30T08:25:11.925Z,12.82
2023-03-30T08:27:40.974Z,12.73
2023-03-30T08:30:13.183Z,11.60
2023-03-30T08:32:42.352Z,12.38
2023-03-30T08:35:11.644Z,11.85
2023-03-30T08:37:41.038Z,11.85
2023-03-30T08:40:13.314Z,11.93
2023-03-30T08:43:04.791Z,12.88
2023-03-30T08:45:41.014Z,11.70
2023-03-30T08:48:19.853Z,12.48
2023-03-30T08:50:57.781Z,12.80
2023-03-30T08:53:29.616Z,13.73
2023-03-30T08:56:10.538Z,14.05
2023-03-30T08:58:53.954Z,17.27
2023-03-30T09:01:30.261Z,13.68
2023-03-30T09:04:24.762Z,12.98
2023-03-30T09:06:57.424Z,12.60
2023-03-30T09:09:31.166Z,13.23
2023-03-30T09:12:07.770Z,12.35
2023-03-30T09:14:42.869Z,13.63
2023-03-30T09:17:21.224Z,12.63
2023-03-30T09:19:57.281Z,14.05
2023-03-30T09:22:35.874Z,12.73
2023-03-30T09:25:13.218Z,13.70
2023-03-30T09:27:58.755Z,12.50
2023-03-30T09:30:38.671Z,13.00
2023-03-30T09:33:22.077Z,13.13
2023-03-30T09:36:09.226Z,12.88
2023-03-30T09:38:41.830Z,11.18
2023-03-30T09:41:33.016Z,10.75
2023-03-30T09:44:04.301Z,10.93
2023-03-30T09:46:40.544Z,11.38
2023-03-30T09:49:18.166Z,11.85
2023-03-30T09:52:06.673Z,10.93
2023-03-30T09:54:40.081Z,11.43
2023-03-30T09:57:27.212Z,12.20
2023-03-30T09:59:59.851Z,11.27
2023-03-30T10:02:31.584Z,11.68
2023-03-30T10:05:04.796Z,11.80
2023-03-30T10:12:06.520Z,11.18
2023-03-30T10:14:37.143Z,11.27
2023-03-30T10:17:09.088Z,10.90
2023-03-30T10:19:48.109Z,10.63
2023-03-30T10:22:23.348Z,10.27
2023-03-30T10:24:55.246Z,11.00
2023-03-30T10:27:34.641Z,11.32
2023-03-30T10:30:12.894Z,10.07
2023-03-30T10:32:47.286Z,10.70
2023-03-30T10:35:22.788Z,9.50
2023-03-30T10:37:55.852Z,10.82
2023-03-30T10:40:32.676Z,10.52
2023-03-30T10:43:04.328Z,10.63
2023-03-30T10:45:41.773Z,9.90
2023-03-30T10:48:43.295Z,10.10
2023-03-30T10:51:23.223Z,10.43
2023-03-30T10:54:04.433Z,10.55
2023-03-30T10:56:43.917Z,10.45
2023-03-30T10:59:44.818Z,10.02
2023-03-30T11:02:48.876Z,10.55
2023-03-30T11:05:25.942Z,10.77
2023-03-30T11:08:01.939Z,9.88
2023-03-30T11:10:34.621Z,9.68
2023-03-30T11:13:08.349Z,10.23
2023-03-30T11:15:44.416Z,10.30
2023-03-30T11:18:21.422Z,9.80
2023-03-30T11:21:01.509Z,9.63
2023-03-30T11:23:45.846Z,9.52
2023-03-30T11:26:24.074Z,10.15
2023-03-30T11:29:24.253Z,10.73
2023-03-30T11:32:12.449Z,10.00
2023-03-30T11:34:56.173Z,10.60
2023-03-30T11:37:33.890Z,10.15
2023-03-30T11:40:17.365Z,9.65
2023-03-30T11:42:48.573Z,10.40
2023-03-30T11:45:34.479Z,10.13
2023-03-30T11:48:42.839Z,10.35
2023-03-30T11:51:29.622Z,10.73
2023-03-30T11:54:39.680Z,9.82
2023-03-30T11:57:18.986Z,9.85
2023-03-30T12:00:08.274Z,9.50
2023-03-30T12:02:51.282Z,9.60
2023-03-30T12:05:31.401Z,9.70
2023-03-30T12:08:30.125Z,10.32
2023-03-30T12:11:13.675Z,10.32
2023-03-30T12:13:51.263Z,9.50
2023-03-30T12:16:31.894Z,9.35
2023-03-30T12:19:14.825Z,9.60
2023-03-30T12:21:56.193Z,9.50
2023-03-30T12:24:34.711Z,8.73
2023-03-30T12:27:07.055Z,9.10
2023-03-30T12:30:02.305Z,8.18
2023-03-30T12:32:35.932Z,9.48
2023-03-30T12:35:51.908Z,8.73
2023-03-30T12:38:25.563Z,8.90
2023-03-30T12:41:15.404Z,8.90
2023-03-30T12:44:18.934Z,8.05
2023-03-30T12:47:06.877Z,7.10
2023-03-30T12:49:59.299Z,7.95
2023-03-30T12:52:43.619Z,8.77
2023-03-30T13:00:31.714Z,7.97
2023-03-30T13:03:38.420Z,7.95
2023-03-30T13:06:24.945Z,8.32
2023-03-30T13:09:05.198Z,7.80
2023-03-30T13:11:46.688Z,7.25
2023-03-30T13:14:27.418Z,7.30
2023-03-30T13:17:17.231Z,7.40
2023-03-30T13:20:12.692Z,6.80
2023-03-30T13:23:28.202Z,6.70
2023-03-30T13:26:34.297Z,6.03
2023-03-30T13:29:11.471Z,5.57
2023-03-30T13:32:19.495Z,5.32
2023-03-30T13:35:17.666Z,4.80
2023-03-30T13:38:17.082Z,4.45
2023-03-30T13:41:04.529Z,4.80
2023-03-30T13:43:57.526Z,4.22
2023-03-30T13:46:36.859Z,4.40
2023-03-30T13:49:32.333Z,4.50
2023-03-30T13:52:07.527Z,4.53
2023-03-30T13:54:40.994Z,4.72
2023-03-30T13:57:14.098Z,4.75
2023-03-30T13:59:48.216Z,4.47
2023-03-30T14:02:20.957Z,4.60
2023-03-30T14:04:51.423Z,5.55
2023-03-30T14:07:24.227Z,4.85
2023-03-30T14:10:08.574Z,5.25
2023-03-30T14:12:41.249Z,5.70
2023-03-30T14:15:24.618Z,4.78
2023-03-30T14:17:58.142Z,4.63
2023-03-30T14:20:47.519Z,4.57
2023-03-30T14:27:48.334Z,4.90
2023-03-30T14:30:29.566Z,4.43
2023-03-30T14:37:32.895Z,5.80
2023-03-30T14:44:38.859Z,6.30
2023-03-30T14:51:42.316Z,6.43
2023-03-30T14:54:18.893Z,6.75
2023-03-30T14:56:57.705Z,5.78
2023-03-30T14:59:28.425Z,5.60
2023-03-30T15:01:58.530Z,6.15
2023-03-30T15:04:35.654Z,6.35
2023-03-30T15:07:05.620Z,5.60
2023-03-30T15:09:40.144Z,6.15
2023-03-30T15:12:16.840Z,5.65
2023-03-30T15:14:48.869Z,6.70
2023-03-30T15:17:23.929Z,6.25
2023-03-30T15:19:55.422Z,6.72
2023-03-30T15:22:30.046Z,6.90
2023-03-30T15:29:32.690Z,6.53
2023-03-30T15:32:08.167Z,7.38
2023-03-30T15:34:37.437Z,9.95
2023-03-30T15:41:48.444Z,7.95
2023-03-30T15:44:20.671Z,8.30
2023-03-30T15:51:30.617Z,11.02
2023-03-30T15:54:04.410Z,10.45
2023-03-30T15:56:39.957Z,9.55
2023-03-30T15:59:16.600Z,9.40
2023-03-30T16:01:52.528Z,11.10
2023-03-30T16:04:25.026Z,11.40
2023-03-30T16:06:56.255Z,9.63
2023-03-30T16:09:25.258Z,10.02
2023-03-30T16:11:54.345Z,8.57
2023-03-30T16:14:23.108Z,8.80
2023-03-30T16:16:52.156Z,7.07
2023-03-30T16:19:21.007Z,7.57
2023-03-30T16:21:53.213Z,8.23
2023-03-30T16:24:23.518Z,8.30
2023-03-30T16:26:52.522Z,8.88
2023-03-30T16:29:24.506Z,8.57
2023-03-30T16:31:54.468Z,8.90
2023-03-30T16:34:23.379Z,7.78
2023-03-30T16:36:53.705Z,8.07
2023-03-30T16:39:26.520Z,8.25
2023-03-30T16:41:57.207Z,8.93
2023-03-30T16:44:26.896Z,9.52
2023-03-30T16:46:55.911Z,10.13
2023-03-30T16:49:27.145Z,10.43
2023-03-30T16:51:58.236Z,10.90
2023-03-30T16:54:32.446Z,10.65
2023-03-30T16:57:02.751Z,10.52
2023-03-30T16:59:34.154Z,10.57
2023-03-30T17:02:03.496Z,10.77
2023-03-30T17:04:32.206Z,11.20
2023-03-30T17:07:01.418Z,10.48
2023-03-30T17:09:31.561Z,10.70
2023-03-30T17:12:00.675Z,12.05
2023-03-30T17:14:30.221Z,11.45
2023-03-30T17:16:59.418Z,11.75
2023-03-30T17:24:00.582Z,10.85
2023-03-30T17:26:30.873Z,11.73
2023-03-30T17:28:59.951Z,12.30
2023-03-30T17:31:28.771Z,11.40
2023-03-30T17:33:57.886Z,11.13
2023-03-30T17:36:29.267Z,13.13
2023-03-30T17:38:59.834Z,11.82
2023-03-30T17:41:30.076Z,12.52
2023-03-30T17:43:59.071Z,12.07
2023-03-30T17:46:28.272Z,12.50
2023-03-30T17:48:58.794Z,12.15
2023-03-30T17:51:27.643Z,12.60
2023-03-30T17:53:56.644Z,12.63
2023-03-30T17:56:25.838Z,13.30
2023-03-30T17:58:56.271Z,12.38
2023-03-30T18:01:25.093Z,13.07
2023-03-30T18:03:54.190Z,13.13
2023-03-30T18:06:22.992Z,13.38
2023-03-30T18:08:52.115Z,13.53
2023-03-30T18:11:21.068Z,14.07
2023-03-30T18:13:51.904Z,14.43
2023-03-30T18:16:24.443Z,13.68
2023-03-30T18:18:53.504Z,13.82
2023-03-30T18:21:22.235Z,14.18
2023-03-30T18:23:51.290Z,14.60
2023-03-30T18:26:19.997Z,15.18
2023-03-30T18:28:48.997Z,14.80
2023-03-30T18:31:17.857Z,14.10
2023-03-30T18:33:49.431Z,13.93
2023-03-30T18:36:21.255Z,12.68
2023-03-30T18:38:50.391Z,13.75
2023-03-30T18:41:19.146Z,14.65
2023-03-30T18:48:22.486Z,13.32
2023-03-30T18:50:54.386Z,13.20
2023-03-30T18:53:25.747Z,14.75
2023-03-30T18:55:58.629Z,14.75
2023-03-30T19:02:59.246Z,14.15
2023-03-30T19:05:30.696Z,14.30
2023-03-30T19:08:01.358Z,14.65
2023-03-30T19:10:34.464Z,14.80
2023-03-30T19:13:03.552Z,15.15
2023-03-30T19:15:34.757Z,15.75
2023-03-30T19:18:05.633Z,15.68
2023-03-30T19:20:37.860Z,15.73
2023-03-30T19:23:09.298Z,15.63
2023-03-30T19:25:38.230Z,15.15
2023-03-30T19:28:08.400Z,16.17
2023-03-30T19:30:40.072Z,15.07
2023-03-30T19:33:13.212Z,15.88
2023-03-30T19:35:43.359Z,15.57
2023-03-30T19:38:14.005Z,15.85
2023-03-30T19:40:43.471Z,14.85
2023-03-30T19:43:12.609Z,15.27
2023-03-30T19:45:41.351Z,14.95
2023-03-30T19:48:10.826Z,15.60
2023-03-30T19:50:40.749Z,15.15
2023-03-30T19:53:10.412Z,15.38
2023-03-30T19:55:40.668Z,15.18
2023-03-30T19:58:12.693Z,15.10
2023-03-30T20:00:43.560Z,16.00
2023-03-30T20:03:14.661Z,15.77
2023-03-30T20:05:50.939Z,16.58
2023-03-30T20:08:24.171Z,16.08
2023-03-30T20:10:56.551Z,16.33
2023-03-30T20:13:27.381Z,16.08
2023-03-30T20:15:57.073Z,16.10
2023-03-30T20:18:26.325Z,15.57
2023-03-30T20:20:55.070Z,17.02
2023-03-30T20:23:24.236Z,16.20
2023-03-30T20:25:56.823Z,16.13
2023-03-30T20:28:25.899Z,16.20
2023-03-30T20:30:57.083Z,16.35
2023-03-30T20:33:28.105Z,16.73
2023-03-30T20:35:58.372Z,16.67
2023-03-30T20:38:27.559Z,17.42
2023-03-30T20:40:59.344Z,16.00
2023-03-30T20:43:28.403Z,16.23
2023-03-30T20:46:02.666Z,16.10
2023-03-30T20:48:33.543Z,16.13
2023-03-30T20:51:03.928Z,15.95
2023-03-30T20:53:34.889Z,16.58
2023-03-30T20:56:09.357Z,16.48
2023-03-30T20:58:39.666Z,16.50
2023-03-30T21:01:19.219Z,15.20
2023-03-30T21:03:50.134Z,15.98
2023-03-30T21:06:23.642Z,15.77
2023-03-30T21:08:54.509Z,16.92
2023-03-30T21:11:27.266Z,14.85
2023-03-30T21:13:56.922Z,14.77
2023-03-30T21:16:26.957Z,14.68
2023-03-30T21:18:56.362Z,15.50
2023-03-30T21:21:25.900Z,15.07
2023-03-30T21:23:54.969Z,14.15
2023-03-30T21:26:26.455Z,14.35
2023-03-30T21:28:55.708Z,15.18
2023-03-30T21:31:25.580Z,13.75
2023-03-30T21:33:54.905Z,14.45
2023-03-30T21:36:24.263Z,13.73
2023-03-30T21:38:53.322Z,13.20
2023-03-30T21:41:24.511Z,13.15
2023-03-30T21:43:55.787Z,12.95
2023-03-30T21:46:27.269Z,11.63
2023-03-30T21:48:56.801Z,10.82
2023-03-30T21:51:28.965Z,9.43
2023-03-30T21:54:00.115Z,10.27
2023-03-30T21:56:31.988Z,10.23
2023-03-30T21:59:02.643Z,9.00
2023-03-30T22:01:31.479Z,8.73
2023-03-30T22:04:01.692Z,8.30
2023-03-30T22:06:32.905Z,8.13
2023-03-30T22:09:02.086Z,8.02
2023-03-30T22:11:31.388Z,7.75
2023-03-30T22:14:02.194Z,8.30
2023-03-30T22:21:07.968Z,7.82
2023-03-30T22:23:36.955Z,8.23
2023-03-30T22:26:06.805Z,8.32
2023-03-30T22:28:35.906Z,7.30
2023-03-30T22:31:08.936Z,7.47
2023-03-30T22:33:37.761Z,7.32
2023-03-30T22:36:17.359Z,7.53
2023-03-30T22:38:46.504Z,8.15
2023-03-30T22:41:15.712Z,7.30
2023-03-30T22:43:44.463Z,8.30
2023-03-30T22:46:14.930Z,8.30
2023-03-30T22:48:44.012Z,9.05
2023-03-30T22:51:14.601Z,9.30
2023-03-30T22:53:43.366Z,8.30
2023-03-30T22:56:12.994Z,8.55
2023-03-30T22:58:41.789Z,9.07
2023-03-30T23:01:12.322Z,8.88
2023-03-30T23:03:43.051Z,9.10
2023-03-30T23:06:12.127Z,9.20
2023-03-30T23:08:40.877Z,8.90
2023-03-30T23:11:09.865Z,9.07
2023-03-30T23:13:42.086Z,9.65
2023-03-30T23:16:11.569Z,9.98
2023-03-30T23:18:42.295Z,9.55
2023-03-30T23:21:14.130Z,10.23
2023-03-30T23:23:43.395Z,9.88
2023-03-30T23:26:13.168Z,10.45
2023-03-30T23:28:43.529Z,9.93
2023-03-30T23:31:14.692Z,10.00
2023-03-30T23:33:45.591Z,11.23
2023-03-30T23:36:17.308Z,10.57
2023-03-30T23:38:47.517Z,9.68
2023-03-30T23:41:18.844Z,10.27
2023-03-30T23:43:48.218Z,9.90
2023-03-30T23:46:17.824Z,9.70
2023-03-30T23:48:47.982Z,10.27
2023-03-30T23:51:17.067Z,10.35
2023-03-30T23:53:47.309Z,9.70
2023-03-30T23:56:17.204Z,9.30
2023-03-30T23:58:46.397Z,10.13
